PWSweather.com
Personal Weather Stations
Station Observations
KOHAVON11
Long Road Station, Avon, OH 44011

Long Road StationAvon, OH 44011

Lat: 41.437, Lon: -82.0477

Elevation: 686

Station Type: Davis Vantage Pro2

http://www.avon-weather.com

High Low Average
Temperature 45.6°F7.6°C 31.2°F-0.4°C 38.9°F3.8°C
Dew Point 36.5°F2.5°C 15.5°F-9.2°C 29.5°F-1.4°C
Winds 21.0 mph 33.8 kmh Calm Calm 7.0 mph WSW11.3 kmh WSW
Wind Gusts 25.0 mph40.2 kmh -- 16.0 mph25.7 kmh
Humidity 88% 49% 70%
Pressure 30.02 in1016.6 mb 29.76 in1007.8 mb -
Precipitation 0.04 in1.0 mm - -
Hour Temp Dew Point Humidity Winds Wind Gusts Pressure Precip Precip Rate Daily Precip Total
12:01 AM 38.9°F3.8°C 28.3°F-2.1°C 66% Calm Calm 1.0 mph1.6 kmh 30.04 in1017.3 mb 0.00 in0.0 mm 0.00 in0.0 mm 0.00 in0.0 mm
12:06 AM 38.9°F3.8°C 28.3°F-2.1°C 66% 1.0 mph WSW1.6 kmh WSW 8.0 mph12.9 kmh 30.04 in1017.3 mb 0.00 in0.0 mm 0.00 in0.0 mm 0.00 in0.0 mm
12:11 AM 38.9°F3.8°C 28.7°F-1.8°C 67% Calm Calm 2.0 mph3.2 kmh 30.04 in1017.3 mb 0.00 in0.0 mm 0.00 in0.0 mm 0.00 in0.0 mm
12:16 AM 38.9°F3.8°C 28.7°F-1.8°C 67% 4.0 mph WSW6.4 kmh WSW 9.0 mph14.5 kmh 30.04 in1017.3 mb 0.00 in0.0 mm 0.00 in0.0 mm 0.00 in0.0 mm
12:21 AM 38.8°F3.8°C 29.0°F-1.7°C 68% Calm Calm -- 30.04 in1017.3 mb 0.00 in0.0 mm 0.00 in0.0 mm 0.00 in0.0 mm
12:26 AM 38.8°F3.8°C 29.0°F-1.7°C 68% 5.0 mph WSW8.0 kmh WSW 9.0 mph14.5 kmh 30.04 in1017.3 mb 0.00 in0.0 mm 0.00 in0.0 mm 0.00 in0.0 mm
12:31 AM 38.8°F3.8°C 29.0°F-1.7°C 68% 4.0 mph WSW6.4 kmh WSW 15.0 mph24.1 kmh 30.03 in1016.9 mb 0.00 in0.0 mm 0.00 in0.0 mm 0.00 in0.0 mm
12:36 AM 38.7°F3.7°C 28.9°F-1.7°C 68% 18.0 mph SSW29.0 kmh SSW 22.0 mph35.4 kmh 30.03 in1016.9 mb 0.00 in0.0 mm 0.00 in0.0 mm 0.00 in0.0 mm
12:41 AM 38.7°F3.7°C 28.9°F-1.7°C 68% 5.0 mph SW8.0 kmh SW 22.0 mph35.4 kmh 30.03 in1016.9 mb 0.00 in0.0 mm 0.00 in0.0 mm 0.00 in0.0 mm
12:46 AM 38.6°F3.7°C 28.8°F-1.8°C 68% 5.0 mph WSW8.0 kmh WSW 22.0 mph35.4 kmh 30.02 in1016.6 mb 0.00 in0.0 mm 0.00 in0.0 mm 0.00 in0.0 mm
12:51 AM 38.4°F3.6°C 29.0°F-1.7°C 69% 4.0 mph SW6.4 kmh SW 22.0 mph35.4 kmh 30.02 in1016.6 mb 0.00 in0.0 mm 0.00 in0.0 mm 0.00 in0.0 mm
12:56 AM 38.1°F3.4°C 29.1°F-1.6°C 70% 9.0 mph S14.5 kmh S 18.0 mph29.0 kmh 30.02 in1016.6 mb 0.00 in0.0 mm 0.00 in0.0 mm 0.00 in0.0 mm
01:01 AM 37.9°F3.3°C 29.2°F-1.6°C 71% 5.0 mph SW8.0 kmh SW 23.0 mph37.0 kmh 30.02 in1016.6 mb 0.00 in0.0 mm 0.00 in0.0 mm 0.00 in0.0 mm
01:06 AM 37.7°F3.2°C 29.4°F-1.4°C 72% 8.0 mph SW12.9 kmh SW 23.0 mph37.0 kmh 30.02 in1016.6 mb 0.00 in0.0 mm 0.00 in0.0 mm 0.00 in0.0 mm
01:11 AM 37.5°F3.1°C 29.2°F-1.6°C 72% 8.0 mph S12.9 kmh S 23.0 mph37.0 kmh 30.02 in1016.6 mb 0.00 in0.0 mm 0.00 in0.0 mm 0.00 in0.0 mm
01:16 AM 37.4°F3.0°C 29.4°F-1.4°C 73% 8.0 mph S12.9 kmh S 23.0 mph37.0 kmh 30.02 in1016.6 mb 0.00 in0.0 mm 0.00 in0.0 mm 0.00 in0.0 mm
01:21 AM 37.4°F3.0°C 29.8°F-1.2°C 74% 11.0 mph S17.7 kmh S 18.0 mph29.0 kmh 30.02 in1016.6 mb 0.00 in0.0 mm 0.00 in0.0 mm 0.00 in0.0 mm
01:26 AM 37.3°F2.9°C 30.0°F-1.1°C 75% 6.0 mph S9.7 kmh S 18.0 mph29.0 kmh 30.02 in1016.6 mb 0.00 in0.0 mm 0.00 in0.0 mm 0.00 in0.0 mm
01:31 AM 37.2°F2.9°C 30.3°F-0.9°C 76% 9.0 mph SW14.5 kmh SW 15.0 mph24.1 kmh 30.02 in1016.6 mb 0.00 in0.0 mm 0.00 in0.0 mm 0.00 in0.0 mm
01:36 AM 37.2°F2.9°C 30.3°F-0.9°C 76% 11.0 mph S17.7 kmh S 15.0 mph24.1 kmh 30.02 in1016.6 mb 0.00 in0.0 mm 0.00 in0.0 mm 0.00 in0.0 mm
01:41 AM 37.1°F2.8°C 30.2°F-1.0°C 76% 3.0 mph SSW4.8 kmh SSW 15.0 mph24.1 kmh 30.02 in1016.6 mb 0.00 in0.0 mm 0.00 in0.0 mm 0.00 in0.0 mm
01:46 AM 37.1°F2.8°C 30.5°F-0.8°C 77% 6.0 mph S9.7 kmh S 15.0 mph24.1 kmh 30.02 in1016.6 mb 0.00 in0.0 mm 0.00 in0.0 mm 0.00 in0.0 mm
01:51 AM 37.1°F2.8°C 30.8°F-0.7°C 78% 5.0 mph SW8.0 kmh SW 15.0 mph24.1 kmh 30.02 in1016.6 mb 0.00 in0.0 mm 0.00 in0.0 mm 0.00 in0.0 mm
01:56 AM 37.0°F2.8°C 30.7°F-0.7°C 78% 8.0 mph S12.9 kmh S 14.0 mph22.5 kmh 30.01 in1016.3 mb 0.00 in0.0 mm 0.00 in0.0 mm 0.00 in0.0 mm
02:01 AM 36.9°F2.7°C 31.0°F-0.6°C 79% 6.0 mph SSW9.7 kmh SSW 14.0 mph22.5 kmh 30.01 in1016.3 mb 0.00 in0.0 mm 0.00 in0.0 mm 0.00 in0.0 mm
02:06 AM 36.8°F2.7°C 30.9°F-0.6°C 79% 5.0 mph SSW8.0 kmh SSW 12.0 mph19.3 kmh 30.01 in1016.3 mb 0.00 in0.0 mm 0.00 in0.0 mm 0.00 in0.0 mm
02:11 AM 36.7°F2.6°C 30.8°F-0.7°C 79% 8.0 mph SW12.9 kmh SW 13.0 mph20.9 kmh 30.00 in1015.9 mb 0.00 in0.0 mm 0.00 in0.0 mm 0.00 in0.0 mm
02:16 AM 36.6°F2.6°C 30.7°F-0.7°C 79% 5.0 mph SSW8.0 kmh SSW 13.0 mph20.9 kmh 30.00 in1015.9 mb 0.00 in0.0 mm 0.00 in0.0 mm 0.00 in0.0 mm
02:21 AM 36.5°F2.5°C 30.9°F-0.6°C 80% 5.0 mph SW8.0 kmh SW 13.0 mph20.9 kmh 30.00 in1015.9 mb 0.00 in0.0 mm 0.00 in0.0 mm 0.00 in0.0 mm
02:26 AM 36.4°F2.4°C 30.8°F-0.7°C 80% 8.0 mph S12.9 kmh S 13.0 mph20.9 kmh 29.99 in1015.6 mb 0.00 in0.0 mm 0.00 in0.0 mm 0.00 in0.0 mm
02:31 AM 36.3°F2.4°C 30.7°F-0.7°C 80% 6.0 mph SSW9.7 kmh SSW 10.0 mph16.1 kmh 29.99 in1015.6 mb 0.00 in0.0 mm 0.00 in0.0 mm 0.00 in0.0 mm
02:36 AM 36.2°F2.3°C 30.9°F-0.6°C 81% 8.0 mph S12.9 kmh S 10.0 mph16.1 kmh 29.98 in1015.2 mb 0.00 in0.0 mm 0.00 in0.0 mm 0.00 in0.0 mm
02:41 AM 36.2°F2.3°C 30.9°F-0.6°C 81% 8.0 mph S12.9 kmh S 11.0 mph17.7 kmh 29.98 in1015.2 mb 0.00 in0.0 mm 0.00 in0.0 mm 0.00 in0.0 mm
02:46 AM 36.1°F2.3°C 30.8°F-0.7°C 81% 7.0 mph SSW11.3 kmh SSW 11.0 mph17.7 kmh 29.98 in1015.2 mb 0.00 in0.0 mm 0.00 in0.0 mm 0.00 in0.0 mm
02:51 AM 36.0°F2.2°C 31.0°F-0.6°C 82% 7.0 mph S11.3 kmh S 11.0 mph17.7 kmh 29.97 in1014.9 mb 0.00 in0.0 mm 0.00 in0.0 mm 0.00 in0.0 mm
02:56 AM 36.0°F2.2°C 31.0°F-0.6°C 82% 4.0 mph S6.4 kmh S 11.0 mph17.7 kmh 29.97 in1014.9 mb 0.00 in0.0 mm 0.00 in0.0 mm 0.00 in0.0 mm
03:01 AM 35.9°F2.2°C 30.9°F-0.6°C 82% 8.0 mph S12.9 kmh S 8.0 mph12.9 kmh 29.97 in1014.9 mb 0.00 in0.0 mm 0.00 in0.0 mm 0.00 in0.0 mm
03:06 AM 35.9°F2.2°C 30.9°F-0.6°C 82% 6.0 mph S9.7 kmh S 8.0 mph12.9 kmh 29.96 in1014.6 mb 0.00 in0.0 mm 0.00 in0.0 mm 0.00 in0.0 mm
03:11 AM 35.9°F2.2°C 31.2°F-0.4°C 83% 5.0 mph S8.0 kmh S 10.0 mph16.1 kmh 29.96 in1014.6 mb 0.00 in0.0 mm 0.00 in0.0 mm 0.00 in0.0 mm
03:16 AM 35.9°F2.2°C 31.2°F-0.4°C 83% 2.0 mph SSW3.2 kmh SSW 10.0 mph16.1 kmh 29.95 in1014.2 mb 0.00 in0.0 mm 0.00 in0.0 mm 0.00 in0.0 mm
03:21 AM 35.9°F2.2°C 31.2°F-0.4°C 83% Calm Calm 10.0 mph16.1 kmh 29.95 in1014.2 mb 0.00 in0.0 mm 0.00 in0.0 mm 0.00 in0.0 mm
03:26 AM 35.9°F2.2°C 31.2°F-0.4°C 83% Calm Calm -- 29.95 in1014.2 mb 0.00 in0.0 mm 0.00 in0.0 mm 0.00 in0.0 mm
03:31 AM 35.8°F2.1°C 31.1°F-0.5°C 83% Calm Calm -- 29.94 in1013.9 mb 0.00 in0.0 mm 0.00 in0.0 mm 0.00 in0.0 mm
03:36 AM 35.8°F2.1°C 31.1°F-0.5°C 83% Calm Calm -- 29.93 in1013.5 mb 0.00 in0.0 mm 0.00 in0.0 mm 0.00 in0.0 mm
03:41 AM 35.8°F2.1°C 31.4°F-0.3°C 84% Calm Calm -- 29.93 in1013.5 mb 0.00 in0.0 mm 0.00 in0.0 mm 0.00 in0.0 mm
03:46 AM 35.8°F2.1°C 31.4°F-0.3°C 84% Calm Calm -- 29.93 in1013.5 mb 0.00 in0.0 mm 0.00 in0.0 mm 0.00 in0.0 mm
03:51 AM 35.8°F2.1°C 31.4°F-0.3°C 84% Calm Calm -- 29.92 in1013.2 mb 0.00 in0.0 mm 0.00 in0.0 mm 0.00 in0.0 mm
03:56 AM 35.8°F2.1°C 31.4°F-0.3°C 84% Calm Calm -- 29.92 in1013.2 mb 0.00 in0.0 mm 0.00 in0.0 mm 0.00 in0.0 mm
04:01 AM 35.8°F2.1°C 31.4°F-0.3°C 84% Calm Calm -- 29.92 in1013.2 mb 0.00 in0.0 mm 0.00 in0.0 mm 0.00 in0.0 mm
04:06 AM 35.8°F2.1°C 31.4°F-0.3°C 84% Calm Calm -- 29.91 in1012.9 mb 0.00 in0.0 mm 0.00 in0.0 mm 0.00 in0.0 mm
04:11 AM 35.8°F2.1°C 31.4°F-0.3°C 84% Calm Calm -- 29.91 in1012.9 mb 0.00 in0.0 mm 0.00 in0.0 mm 0.00 in0.0 mm
04:16 AM 35.7°F2.1°C 31.6°F-0.2°C 85% 1.0 mph S1.6 kmh S 5.0 mph8.0 kmh 29.91 in1012.9 mb 0.00 in0.0 mm 0.00 in0.0 mm 0.00 in0.0 mm
04:21 AM 35.7°F2.1°C 31.6°F-0.2°C 85% 5.0 mph S8.0 kmh S 6.0 mph9.7 kmh 29.91 in1012.9 mb 0.00 in0.0 mm 0.00 in0.0 mm 0.00 in0.0 mm
04:26 AM 35.6°F2.0°C 31.5°F-0.3°C 85% 5.0 mph SSW8.0 kmh SSW 6.0 mph9.7 kmh 29.91 in1012.9 mb 0.00 in0.0 mm 0.00 in0.0 mm 0.00 in0.0 mm
04:31 AM 35.6°F2.0°C 31.5°F-0.3°C 85% Calm Calm 8.0 mph12.9 kmh 29.90 in1012.5 mb 0.00 in0.0 mm 0.00 in0.0 mm 0.00 in0.0 mm
04:36 AM 35.5°F1.9°C 31.4°F-0.3°C 85% Calm Calm -- 29.91 in1012.9 mb 0.00 in0.0 mm 0.00 in0.0 mm 0.00 in0.0 mm
04:41 AM 35.5°F1.9°C 31.4°F-0.3°C 85% Calm Calm -- 29.90 in1012.5 mb 0.00 in0.0 mm 0.00 in0.0 mm 0.00 in0.0 mm
04:46 AM 35.4°F1.9°C 31.3°F-0.4°C 85% Calm Calm -- 29.90 in1012.5 mb 0.00 in0.0 mm 0.00 in0.0 mm 0.00 in0.0 mm
04:51 AM 35.4°F1.9°C 31.6°F-0.2°C 86% Calm Calm 2.0 mph3.2 kmh 29.89 in1012.2 mb 0.00 in0.0 mm 0.00 in0.0 mm 0.01 in0.3 mm
04:56 AM 35.2°F1.8°C 31.4°F-0.3°C 86% Calm Calm 1.0 mph1.6 kmh 29.89 in1012.2 mb 0.09 in2.3 mm 1.08 in27.4 mm 0.02 in0.5 mm
05:01 AM 35.0°F1.7°C 31.3°F-0.4°C 86% Calm Calm 2.0 mph3.2 kmh 29.88 in1011.9 mb 0.09 in2.3 mm 0.00 in0.0 mm 0.02 in0.5 mm
05:06 AM 34.8°F1.6°C 31.1°F-0.5°C 86% 5.0 mph SSW8.0 kmh SSW 7.0 mph11.3 kmh 29.89 in1012.2 mb 0.05 in1.3 mm 0.00 in0.0 mm 0.02 in0.5 mm
05:11 AM 34.6°F1.4°C 30.9°F-0.6°C 86% 1.0 mph S1.6 kmh S 7.0 mph11.3 kmh 29.88 in1011.9 mb 0.04 in1.0 mm 0.00 in0.0 mm 0.02 in0.5 mm
05:16 AM 34.5°F1.4°C 30.8°F-0.7°C 86% Calm Calm 7.0 mph11.3 kmh 29.88 in1011.9 mb 0.00 in0.0 mm 0.00 in0.0 mm 0.02 in0.5 mm
05:21 AM 34.4°F1.3°C 30.7°F-0.7°C 86% 6.0 mph S9.7 kmh S 9.0 mph14.5 kmh 29.88 in1011.9 mb 0.00 in0.0 mm 0.00 in0.0 mm 0.02 in0.5 mm
05:26 AM 34.4°F1.3°C 30.7°F-0.7°C 86% 7.0 mph S11.3 kmh S 9.0 mph14.5 kmh 29.88 in1011.9 mb 0.00 in0.0 mm 0.00 in0.0 mm 0.02 in0.5 mm
05:31 AM 34.4°F1.3°C 31.0°F-0.6°C 87% 4.0 mph S6.4 kmh S 9.0 mph14.5 kmh 29.87 in1011.5 mb 0.00 in0.0 mm 0.00 in0.0 mm 0.02 in0.5 mm
05:36 AM 34.4°F1.3°C 31.0°F-0.6°C 87% 8.0 mph S12.9 kmh S 9.0 mph14.5 kmh 29.87 in1011.5 mb 0.00 in0.0 mm 0.00 in0.0 mm 0.03 in0.8 mm
05:41 AM 34.4°F1.3°C 31.0°F-0.6°C 87% 3.0 mph SSW4.8 kmh SSW 10.0 mph16.1 kmh 29.86 in1011.2 mb 0.00 in0.0 mm 0.00 in0.0 mm 0.03 in0.8 mm
05:46 AM 34.4°F1.3°C 31.0°F-0.6°C 87% 5.0 mph S8.0 kmh S 10.0 mph16.1 kmh 29.86 in1011.2 mb 0.00 in0.0 mm 0.00 in0.0 mm 0.03 in0.8 mm
05:51 AM 34.4°F1.3°C 31.0°F-0.6°C 87% 3.0 mph SE4.8 kmh SE 10.0 mph16.1 kmh 29.86 in1011.2 mb 0.00 in0.0 mm 0.00 in0.0 mm 0.03 in0.8 mm
05:56 AM 34.4°F1.3°C 31.0°F-0.6°C 87% Calm Calm -- 29.85 in1010.8 mb 0.00 in0.0 mm 0.00 in0.0 mm 0.03 in0.8 mm
06:01 AM 34.5°F1.4°C 31.1°F-0.5°C 87% Calm Calm -- 29.85 in1010.8 mb 0.00 in0.0 mm 0.00 in0.0 mm 0.03 in0.8 mm
06:06 AM 34.5°F1.4°C 31.1°F-0.5°C 87% Calm Calm 3.0 mph4.8 kmh 29.85 in1010.8 mb 0.00 in0.0 mm 0.00 in0.0 mm 0.03 in0.8 mm
06:11 AM 34.6°F1.4°C 31.2°F-0.4°C 87% Calm Calm 3.0 mph4.8 kmh 29.84 in1010.5 mb 0.00 in0.0 mm 0.00 in0.0 mm 0.03 in0.8 mm
06:16 AM 34.7°F1.5°C 31.2°F-0.4°C 87% 9.0 mph S14.5 kmh S 11.0 mph17.7 kmh 29.84 in1010.5 mb 0.00 in0.0 mm 0.00 in0.0 mm 0.03 in0.8 mm
06:21 AM 34.9°F1.6°C 31.7°F-0.2°C 88% 4.0 mph S6.4 kmh S 11.0 mph17.7 kmh 29.84 in1010.5 mb 0.00 in0.0 mm 0.00 in0.0 mm 0.03 in0.8 mm
06:26 AM 35.0°F1.7°C 31.8°F-0.1°C 88% 8.0 mph S12.9 kmh S 12.0 mph19.3 kmh 29.83 in1010.2 mb 0.00 in0.0 mm 0.00 in0.0 mm 0.03 in0.8 mm
06:31 AM 35.1°F1.7°C 31.9°F-0.1°C 88% 9.0 mph SSE14.5 kmh SSE 14.0 mph22.5 kmh 29.83 in1010.2 mb 0.00 in0.0 mm 0.00 in0.0 mm 0.04 in1.0 mm
06:36 AM 35.3°F1.8°C 32.1°F0.1°C 88% 11.0 mph S17.7 kmh S 14.0 mph22.5 kmh 29.82 in1009.8 mb 0.00 in0.0 mm 0.00 in0.0 mm 0.04 in1.0 mm
06:41 AM 35.4°F1.9°C 32.2°F0.1°C 88% 13.0 mph S20.9 kmh S 14.0 mph22.5 kmh 29.82 in1009.8 mb 0.00 in0.0 mm 0.00 in0.0 mm 0.04 in1.0 mm
06:46 AM 35.6°F2.0°C 32.4°F0.2°C 88% 3.0 mph SW4.8 kmh SW 14.0 mph22.5 kmh 29.82 in1009.8 mb 0.00 in0.0 mm 0.00 in0.0 mm 0.04 in1.0 mm
06:51 AM 35.6°F2.0°C 32.4°F0.2°C 88% 12.0 mph S19.3 kmh S 15.0 mph24.1 kmh 29.81 in1009.5 mb 0.00 in0.0 mm 0.00 in0.0 mm 0.04 in1.0 mm
06:56 AM 35.8°F2.1°C 32.6°F0.3°C 88% 10.0 mph S16.1 kmh S 15.0 mph24.1 kmh 29.81 in1009.5 mb 0.00 in0.0 mm 0.00 in0.0 mm 0.04 in1.0 mm
07:01 AM 35.8°F2.1°C 32.6°F0.3°C 88% 8.0 mph S12.9 kmh S 16.0 mph25.7 kmh 29.81 in1009.5 mb 0.00 in0.0 mm 0.00 in0.0 mm 0.04 in1.0 mm
07:06 AM 35.9°F2.2°C 32.7°F0.4°C 88% 6.0 mph S9.7 kmh S 18.0 mph29.0 kmh 29.81 in1009.5 mb 0.00 in0.0 mm 0.00 in0.0 mm 0.04 in1.0 mm
07:11 AM 36.1°F2.3°C 32.9°F0.5°C 88% 7.0 mph S11.3 kmh S 18.0 mph29.0 kmh 29.80 in1009.1 mb 0.00 in0.0 mm 0.00 in0.0 mm 0.04 in1.0 mm
07:16 AM 36.2°F2.3°C 32.7°F0.4°C 87% 14.0 mph SSW22.5 kmh SSW 18.0 mph29.0 kmh 29.80 in1009.1 mb 0.00 in0.0 mm 0.00 in0.0 mm 0.04 in1.0 mm
07:21 AM 36.3°F2.4°C 33.1°F0.6°C 88% 14.0 mph S22.5 kmh S 18.0 mph29.0 kmh 29.80 in1009.1 mb 0.00 in0.0 mm 0.00 in0.0 mm 0.04 in1.0 mm
07:26 AM 36.4°F2.4°C 32.9°F0.5°C 87% 5.0 mph S8.0 kmh S 15.0 mph24.1 kmh 29.80 in1009.1 mb 0.00 in0.0 mm 0.00 in0.0 mm 0.04 in1.0 mm
07:31 AM 36.6°F2.6°C 33.1°F0.6°C 87% 14.0 mph SSW22.5 kmh SSW 18.0 mph29.0 kmh 29.80 in1009.1 mb 0.00 in0.0 mm 0.00 in0.0 mm 0.04 in1.0 mm
07:36 AM 36.8°F2.7°C 33.3°F0.7°C 87% 14.0 mph SSW22.5 kmh SSW 18.0 mph29.0 kmh 29.80 in1009.1 mb 0.00 in0.0 mm 0.00 in0.0 mm 0.04 in1.0 mm
07:41 AM 37.0°F2.8°C 33.5°F0.8°C 87% 9.0 mph S14.5 kmh S 18.0 mph29.0 kmh 29.79 in1008.8 mb 0.00 in0.0 mm 0.00 in0.0 mm 0.04 in1.0 mm
07:46 AM 37.3°F2.9°C 33.5°F0.8°C 86% 7.0 mph S11.3 kmh S 18.0 mph29.0 kmh 29.79 in1008.8 mb 0.00 in0.0 mm 0.00 in0.0 mm 0.04 in1.0 mm
07:51 AM 37.5°F3.1°C 33.7°F0.9°C 86% 14.0 mph S22.5 kmh S 18.0 mph29.0 kmh 29.79 in1008.8 mb 0.00 in0.0 mm 0.00 in0.0 mm 0.04 in1.0 mm
07:56 AM 37.9°F3.3°C 33.8°F1.0°C 85% 8.0 mph SSW12.9 kmh SSW 19.0 mph30.6 kmh 29.79 in1008.8 mb 0.00 in0.0 mm 0.00 in0.0 mm 0.04 in1.0 mm
08:01 AM 38.3°F3.5°C 33.9°F1.1°C 84% 15.0 mph S24.1 kmh S 22.0 mph35.4 kmh 29.79 in1008.8 mb 0.00 in0.0 mm 0.00 in0.0 mm 0.04 in1.0 mm
08:06 AM 38.5°F3.6°C 34.1°F1.2°C 84% 8.0 mph S12.9 kmh S 22.0 mph35.4 kmh 29.79 in1008.8 mb 0.00 in0.0 mm 0.00 in0.0 mm 0.04 in1.0 mm
08:11 AM 38.7°F3.7°C 34.0°F1.1°C 83% 8.0 mph S12.9 kmh S 22.0 mph35.4 kmh 29.78 in1008.5 mb 0.00 in0.0 mm 0.00 in0.0 mm 0.04 in1.0 mm
08:16 AM 38.9°F3.8°C 33.9°F1.1°C 82% 7.0 mph SSW11.3 kmh SSW 22.0 mph35.4 kmh 29.78 in1008.5 mb 0.00 in0.0 mm 0.00 in0.0 mm 0.04 in1.0 mm
08:21 AM 39.2°F4.0°C 34.1°F1.2°C 82% 6.0 mph SW9.7 kmh SW 17.0 mph27.4 kmh 29.79 in1008.8 mb 0.00 in0.0 mm 0.00 in0.0 mm 0.04 in1.0 mm
08:26 AM 39.6°F4.2°C 34.2°F1.2°C 81% 5.0 mph SW8.0 kmh SW 17.0 mph27.4 kmh 29.79 in1008.8 mb 0.00 in0.0 mm 0.00 in0.0 mm 0.04 in1.0 mm
08:31 AM 39.9°F4.4°C 34.5°F1.4°C 81% 12.0 mph SW19.3 kmh SW 13.0 mph20.9 kmh 29.78 in1008.5 mb 0.00 in0.0 mm 0.00 in0.0 mm 0.04 in1.0 mm
08:36 AM 40.1°F4.5°C 34.4°F1.3°C 80% 10.0 mph S16.1 kmh S 13.0 mph20.9 kmh 29.78 in1008.5 mb 0.00 in0.0 mm 0.00 in0.0 mm 0.04 in1.0 mm
08:41 AM 40.7°F4.8°C 35.0°F1.7°C 80% 3.0 mph WSW4.8 kmh WSW 13.0 mph20.9 kmh 29.78 in1008.5 mb 0.00 in0.0 mm 0.00 in0.0 mm 0.04 in1.0 mm
08:46 AM 41.2°F5.1°C 35.1°F1.7°C 79% 4.0 mph SW6.4 kmh SW 16.0 mph25.7 kmh 29.78 in1008.5 mb 0.00 in0.0 mm 0.00 in0.0 mm 0.04 in1.0 mm
08:51 AM 41.7°F5.4°C 35.3°F1.8°C 78% 4.0 mph SW6.4 kmh SW 16.0 mph25.7 kmh 29.78 in1008.5 mb 0.00 in0.0 mm 0.00 in0.0 mm 0.04 in1.0 mm
08:56 AM 42.0°F5.6°C 35.2°F1.8°C 77% 7.0 mph SW11.3 kmh SW 16.0 mph25.7 kmh 29.78 in1008.5 mb 0.00 in0.0 mm 0.00 in0.0 mm 0.04 in1.0 mm
09:01 AM 42.3°F5.7°C 35.5°F1.9°C 77% 4.0 mph SW6.4 kmh SW 16.0 mph25.7 kmh 29.77 in1008.1 mb 0.00 in0.0 mm 0.00 in0.0 mm 0.04 in1.0 mm
09:06 AM 42.8°F6.0°C 35.7°F2.1°C 76% 4.0 mph SW6.4 kmh SW 9.0 mph14.5 kmh 29.77 in1008.1 mb 0.00 in0.0 mm 0.00 in0.0 mm 0.04 in1.0 mm
09:11 AM 43.6°F6.4°C 35.8°F2.1°C 74% 6.0 mph SW9.7 kmh SW 11.0 mph17.7 kmh 29.77 in1008.1 mb 0.00 in0.0 mm 0.00 in0.0 mm 0.04 in1.0 mm
09:16 AM 43.9°F6.6°C 35.7°F2.1°C 73% 6.0 mph SW9.7 kmh SW 11.0 mph17.7 kmh 29.77 in1008.1 mb 0.00 in0.0 mm 0.00 in0.0 mm 0.04 in1.0 mm
09:21 AM 44.1°F6.7°C 35.2°F1.8°C 71% 5.0 mph SW8.0 kmh SW 11.0 mph17.7 kmh 29.77 in1008.1 mb 0.00 in0.0 mm 0.00 in0.0 mm 0.04 in1.0 mm
09:26 AM 44.3°F6.8°C 35.4°F1.9°C 71% 6.0 mph SW9.7 kmh SW 11.0 mph17.7 kmh 29.77 in1008.1 mb 0.00 in0.0 mm 0.00 in0.0 mm 0.04 in1.0 mm
09:31 AM 44.6°F7.0°C 35.3°F1.8°C 70% 8.0 mph SW12.9 kmh SW 12.0 mph19.3 kmh 29.77 in1008.1 mb 0.00 in0.0 mm 0.00 in0.0 mm 0.04 in1.0 mm
09:36 AM 44.7°F7.1°C 35.0°F1.7°C 69% 11.0 mph WSW17.7 kmh WSW 12.0 mph19.3 kmh 29.77 in1008.1 mb 0.00 in0.0 mm 0.00 in0.0 mm 0.04 in1.0 mm
09:41 AM 44.9°F7.2°C 35.2°F1.8°C 69% 6.0 mph WSW9.7 kmh WSW 14.0 mph22.5 kmh 29.77 in1008.1 mb 0.00 in0.0 mm 0.00 in0.0 mm 0.04 in1.0 mm
09:46 AM 45.1°F7.3°C 35.0°F1.7°C 68% 9.0 mph WSW14.5 kmh WSW 17.0 mph27.4 kmh 29.77 in1008.1 mb 0.00 in0.0 mm 0.00 in0.0 mm 0.04 in1.0 mm
09:51 AM 45.3°F7.4°C 34.8°F1.6°C 67% 7.0 mph WSW11.3 kmh WSW 17.0 mph27.4 kmh 29.76 in1007.8 mb 0.00 in0.0 mm 0.00 in0.0 mm 0.04 in1.0 mm
09:56 AM 45.4°F7.4°C 34.9°F1.6°C 67% 15.0 mph SW24.1 kmh SW 17.0 mph27.4 kmh 29.77 in1008.1 mb 0.00 in0.0 mm 0.00 in0.0 mm 0.04 in1.0 mm
10:01 AM 45.5°F7.5°C 35.0°F1.7°C 67% 9.0 mph WSW14.5 kmh WSW 17.0 mph27.4 kmh 29.77 in1008.1 mb 0.00 in0.0 mm 0.00 in0.0 mm 0.04 in1.0 mm
10:06 AM 45.5°F7.5°C 35.0°F1.7°C 67% 7.0 mph WSW11.3 kmh WSW 20.0 mph32.2 kmh 29.77 in1008.1 mb 0.00 in0.0 mm 0.00 in0.0 mm 0.04 in1.0 mm
10:11 AM 45.4°F7.4°C 34.5°F1.4°C 66% 10.0 mph SSW16.1 kmh SSW 20.0 mph32.2 kmh 29.76 in1007.8 mb 0.00 in0.0 mm 0.00 in0.0 mm 0.04 in1.0 mm
10:16 AM 45.4°F7.4°C 34.9°F1.6°C 67% 5.0 mph WSW8.0 kmh WSW 20.0 mph32.2 kmh 29.77 in1008.1 mb 0.00 in0.0 mm 0.00 in0.0 mm 0.04 in1.0 mm
10:21 AM 45.4°F7.4°C 34.9°F1.6°C 67% 7.0 mph WSW11.3 kmh WSW 20.0 mph32.2 kmh 29.77 in1008.1 mb 0.00 in0.0 mm 0.00 in0.0 mm 0.04 in1.0 mm
10:26 AM 45.5°F7.5°C 35.0°F1.7°C 67% 8.0 mph SW12.9 kmh SW 15.0 mph24.1 kmh 29.77 in1008.1 mb 0.00 in0.0 mm 0.00 in0.0 mm 0.04 in1.0 mm
10:31 AM 45.4°F7.4°C 35.3°F1.8°C 68% 6.0 mph WSW9.7 kmh WSW 15.0 mph24.1 kmh 29.77 in1008.1 mb 0.00 in0.0 mm 0.00 in0.0 mm 0.04 in1.0 mm
10:36 AM 45.4°F7.4°C 34.9°F1.6°C 67% 6.0 mph WSW9.7 kmh WSW 19.0 mph30.6 kmh 29.77 in1008.1 mb 0.00 in0.0 mm 0.00 in0.0 mm 0.04 in1.0 mm
10:41 AM 45.3°F7.4°C 35.2°F1.8°C 68% 7.0 mph WSW11.3 kmh WSW 19.0 mph30.6 kmh 29.77 in1008.1 mb 0.00 in0.0 mm 0.00 in0.0 mm 0.04 in1.0 mm
10:46 AM 45.3°F7.4°C 35.2°F1.8°C 68% 8.0 mph W12.9 kmh W 19.0 mph30.6 kmh 29.77 in1008.1 mb 0.00 in0.0 mm 0.00 in0.0 mm 0.04 in1.0 mm
10:51 AM 45.2°F7.3°C 35.1°F1.7°C 68% 7.0 mph W11.3 kmh W 19.0 mph30.6 kmh 29.78 in1008.5 mb 0.00 in0.0 mm 0.00 in0.0 mm 0.04 in1.0 mm
10:56 AM 45.2°F7.3°C 35.1°F1.7°C 68% 9.0 mph W14.5 kmh W 19.0 mph30.6 kmh 29.78 in1008.5 mb 0.00 in0.0 mm 0.00 in0.0 mm 0.04 in1.0 mm
11:01 AM 45.0°F7.2°C 35.3°F1.8°C 69% 11.0 mph WNW17.7 kmh WNW 19.0 mph30.6 kmh 29.78 in1008.5 mb 0.00 in0.0 mm 0.00 in0.0 mm 0.04 in1.0 mm
11:06 AM 44.6°F7.0°C 34.9°F1.6°C 69% 5.0 mph W8.0 kmh W 22.0 mph35.4 kmh 29.78 in1008.5 mb 0.00 in0.0 mm 0.00 in0.0 mm 0.04 in1.0 mm
11:11 AM 44.3°F6.8°C 35.7°F2.1°C 72% 4.0 mph W6.4 kmh W 22.0 mph35.4 kmh 29.78 in1008.5 mb 0.00 in0.0 mm 0.00 in0.0 mm 0.04 in1.0 mm
11:16 AM 44.1°F6.7°C 35.5°F1.9°C 72% 5.0 mph W8.0 kmh W 22.0 mph35.4 kmh 29.78 in1008.5 mb 0.00 in0.0 mm 0.00 in0.0 mm 0.04 in1.0 mm
11:21 AM 44.1°F6.7°C 35.9°F2.2°C 73% 6.0 mph W9.7 kmh W 22.0 mph35.4 kmh 29.79 in1008.8 mb 0.00 in0.0 mm 0.00 in0.0 mm 0.04 in1.0 mm
11:26 AM 43.8°F6.6°C 35.6°F2.0°C 73% 8.0 mph NW12.9 kmh NW 18.0 mph29.0 kmh 29.79 in1008.8 mb 0.00 in0.0 mm 0.00 in0.0 mm 0.04 in1.0 mm
11:31 AM 43.7°F6.5°C 35.9°F2.2°C 74% 8.0 mph W12.9 kmh W 18.0 mph29.0 kmh 29.79 in1008.8 mb 0.00 in0.0 mm 0.00 in0.0 mm 0.04 in1.0 mm
11:36 AM 43.5°F6.4°C 35.7°F2.1°C 74% 12.0 mph WNW19.3 kmh WNW 16.0 mph25.7 kmh 29.79 in1008.8 mb 0.00 in0.0 mm 0.00 in0.0 mm 0.04 in1.0 mm
11:41 AM 43.6°F6.4°C 36.1°F2.3°C 75% 8.0 mph W12.9 kmh W 21.0 mph33.8 kmh 29.79 in1008.8 mb 0.00 in0.0 mm 0.00 in0.0 mm 0.04 in1.0 mm
11:46 AM 43.6°F6.4°C 36.1°F2.3°C 75% 5.0 mph W8.0 kmh W 21.0 mph33.8 kmh 29.79 in1008.8 mb 0.00 in0.0 mm 0.00 in0.0 mm 0.04 in1.0 mm
11:51 AM 43.7°F6.5°C 36.2°F2.3°C 75% 7.0 mph W11.3 kmh W 21.0 mph33.8 kmh 29.79 in1008.8 mb 0.00 in0.0 mm 0.00 in0.0 mm 0.04 in1.0 mm
11:56 AM 43.8°F6.6°C 35.9°F2.2°C 74% 5.0 mph W8.0 kmh W 21.0 mph33.8 kmh 29.79 in1008.8 mb 0.00 in0.0 mm 0.00 in0.0 mm 0.04 in1.0 mm
12:01 PM 44.0°F6.7°C 36.5°F2.5°C 75% 8.0 mph W12.9 kmh W 15.0 mph24.1 kmh 29.79 in1008.8 mb 0.00 in0.0 mm 0.00 in0.0 mm 0.04 in1.0 mm
12:06 PM 44.0°F6.7°C 36.1°F2.3°C 74% 8.0 mph W12.9 kmh W 15.0 mph24.1 kmh 29.78 in1008.5 mb 0.00 in0.0 mm 0.00 in0.0 mm 0.04 in1.0 mm
12:11 PM 43.9°F6.6°C 35.7°F2.1°C 73% 7.0 mph WNW11.3 kmh WNW 17.0 mph27.4 kmh 29.79 in1008.8 mb 0.00 in0.0 mm 0.00 in0.0 mm 0.04 in1.0 mm
12:16 PM 43.7°F6.5°C 35.5°F1.9°C 73% 6.0 mph WSW9.7 kmh WSW 17.0 mph27.4 kmh 29.78 in1008.5 mb 0.00 in0.0 mm 0.00 in0.0 mm 0.04 in1.0 mm
12:21 PM 43.7°F6.5°C 35.5°F1.9°C 73% 6.0 mph W9.7 kmh W 17.0 mph27.4 kmh 29.78 in1008.5 mb 0.00 in0.0 mm 0.00 in0.0 mm 0.04 in1.0 mm
12:26 PM 43.7°F6.5°C 35.5°F1.9°C 73% 13.0 mph WNW20.9 kmh WNW 17.0 mph27.4 kmh 29.79 in1008.8 mb 0.00 in0.0 mm 0.00 in0.0 mm 0.04 in1.0 mm
12:31 PM 43.9°F6.6°C 35.3°F1.8°C 72% 4.0 mph WNW6.4 kmh WNW 17.0 mph27.4 kmh 29.79 in1008.8 mb 0.00 in0.0 mm 0.00 in0.0 mm 0.04 in1.0 mm
12:36 PM 43.8°F6.6°C 34.9°F1.6°C 71% 6.0 mph W9.7 kmh W 17.0 mph27.4 kmh 29.78 in1008.5 mb 0.00 in0.0 mm 0.00 in0.0 mm 0.04 in1.0 mm
12:41 PM 43.9°F6.6°C 35.0°F1.7°C 71% 6.0 mph W9.7 kmh W 17.0 mph27.4 kmh 29.78 in1008.5 mb 0.00 in0.0 mm 0.00 in0.0 mm 0.04 in1.0 mm
12:46 PM 44.1°F6.7°C 35.5°F1.9°C 72% 7.0 mph WSW11.3 kmh WSW 17.0 mph27.4 kmh 29.79 in1008.8 mb 0.00 in0.0 mm 0.00 in0.0 mm 0.04 in1.0 mm
12:51 PM 44.3°F6.8°C 35.4°F1.9°C 71% 5.0 mph W8.0 kmh W 15.0 mph24.1 kmh 29.79 in1008.8 mb 0.00 in0.0 mm 0.00 in0.0 mm 0.04 in1.0 mm
12:56 PM 44.5°F6.9°C 35.2°F1.8°C 70% 8.0 mph W12.9 kmh W 17.0 mph27.4 kmh 29.78 in1008.5 mb 0.00 in0.0 mm 0.00 in0.0 mm 0.04 in1.0 mm
01:01 PM 44.5°F6.9°C 35.2°F1.8°C 70% 6.0 mph W9.7 kmh W 17.0 mph27.4 kmh 29.78 in1008.5 mb 0.00 in0.0 mm 0.00 in0.0 mm 0.04 in1.0 mm
01:06 PM 44.5°F6.9°C 35.2°F1.8°C 70% 5.0 mph WSW8.0 kmh WSW 17.0 mph27.4 kmh 29.77 in1008.1 mb 0.00 in0.0 mm 0.00 in0.0 mm 0.04 in1.0 mm
01:11 PM 44.5°F6.9°C 34.8°F1.6°C 69% 8.0 mph WNW12.9 kmh WNW 17.0 mph27.4 kmh 29.78 in1008.5 mb 0.00 in0.0 mm 0.00 in0.0 mm 0.04 in1.0 mm
01:16 PM 44.8°F7.1°C 35.1°F1.7°C 69% 6.0 mph W9.7 kmh W 13.0 mph20.9 kmh 29.78 in1008.5 mb 0.00 in0.0 mm 0.00 in0.0 mm 0.04 in1.0 mm
01:21 PM 45.0°F7.2°C 34.9°F1.6°C 68% 11.0 mph NW17.7 kmh NW 13.0 mph20.9 kmh 29.78 in1008.5 mb 0.00 in0.0 mm 0.00 in0.0 mm 0.04 in1.0 mm
01:26 PM 45.1°F7.3°C 34.6°F1.4°C 67% 4.0 mph W6.4 kmh W 15.0 mph24.1 kmh 29.77 in1008.1 mb 0.00 in0.0 mm 0.00 in0.0 mm 0.04 in1.0 mm
01:31 PM 45.2°F7.3°C 33.5°F0.8°C 64% 7.0 mph WSW11.3 kmh WSW 17.0 mph27.4 kmh 29.78 in1008.5 mb 0.00 in0.0 mm 0.00 in0.0 mm 0.04 in1.0 mm
01:36 PM 45.3°F7.4°C 32.4°F0.2°C 61% 10.0 mph WSW16.1 kmh WSW 23.0 mph37.0 kmh 29.77 in1008.1 mb 0.00 in0.0 mm 0.00 in0.0 mm 0.04 in1.0 mm
01:41 PM 45.5°F7.5°C 32.6°F0.3°C 61% 8.0 mph W12.9 kmh W 23.0 mph37.0 kmh 29.77 in1008.1 mb 0.00 in0.0 mm 0.00 in0.0 mm 0.04 in1.0 mm
01:46 PM 45.5°F7.5°C 31.7°F-0.2°C 59% 4.0 mph W6.4 kmh W 25.0 mph40.2 kmh 29.77 in1008.1 mb 0.00 in0.0 mm 0.00 in0.0 mm 0.04 in1.0 mm
01:51 PM 45.6°F7.6°C 30.9°F-0.6°C 57% 9.0 mph W14.5 kmh W 25.0 mph40.2 kmh 29.77 in1008.1 mb 0.00 in0.0 mm 0.00 in0.0 mm 0.04 in1.0 mm
01:56 PM 45.4°F7.4°C 30.3°F-0.9°C 56% 13.0 mph WSW20.9 kmh WSW 25.0 mph40.2 kmh 29.77 in1008.1 mb 0.00 in0.0 mm 0.00 in0.0 mm 0.04 in1.0 mm
02:01 PM 45.2°F7.3°C 30.1°F-1.1°C 56% 4.0 mph W6.4 kmh W 25.0 mph40.2 kmh 29.77 in1008.1 mb 0.00 in0.0 mm 0.00 in0.0 mm 0.04 in1.0 mm
02:06 PM 45.1°F7.3°C 30.5°F-0.8°C 57% 12.0 mph WSW19.3 kmh WSW 22.0 mph35.4 kmh 29.77 in1008.1 mb 0.00 in0.0 mm 0.00 in0.0 mm 0.04 in1.0 mm
02:11 PM 44.9°F7.2°C 30.3°F-0.9°C 57% 5.0 mph W8.0 kmh W 22.0 mph35.4 kmh 29.77 in1008.1 mb 0.00 in0.0 mm 0.00 in0.0 mm 0.04 in1.0 mm
02:16 PM 44.8°F7.1°C 30.6°F-0.8°C 58% 11.0 mph WSW17.7 kmh WSW 22.0 mph35.4 kmh 29.78 in1008.5 mb 0.00 in0.0 mm 0.00 in0.0 mm 0.04 in1.0 mm
02:21 PM 44.8°F7.1°C 31.5°F-0.3°C 60% 6.0 mph W9.7 kmh W 22.0 mph35.4 kmh 29.77 in1008.1 mb 0.00 in0.0 mm 0.00 in0.0 mm 0.04 in1.0 mm
02:26 PM 44.8°F7.1°C 31.5°F-0.3°C 60% 8.0 mph WSW12.9 kmh WSW 18.0 mph29.0 kmh 29.77 in1008.1 mb 0.00 in0.0 mm 0.00 in0.0 mm 0.04 in1.0 mm
02:31 PM 44.7°F7.1°C 31.8°F-0.1°C 61% 6.0 mph W9.7 kmh W 18.0 mph29.0 kmh 29.77 in1008.1 mb 0.00 in0.0 mm 0.00 in0.0 mm 0.04 in1.0 mm
02:36 PM 44.6°F7.0°C 31.7°F-0.2°C 61% 8.0 mph WSW12.9 kmh WSW 12.0 mph19.3 kmh 29.77 in1008.1 mb 0.00 in0.0 mm 0.00 in0.0 mm 0.04 in1.0 mm
02:41 PM 44.4°F6.9°C 32.0°F0.0°C 62% 6.0 mph WNW9.7 kmh WNW 12.0 mph19.3 kmh 29.77 in1008.1 mb 0.00 in0.0 mm 0.00 in0.0 mm 0.04 in1.0 mm
02:46 PM 44.3°F6.8°C 32.3°F0.2°C 63% 4.0 mph NW6.4 kmh NW 12.0 mph19.3 kmh 29.77 in1008.1 mb 0.00 in0.0 mm 0.00 in0.0 mm 0.04 in1.0 mm
02:51 PM 44.3°F6.8°C 32.7°F0.4°C 64% 5.0 mph WSW8.0 kmh WSW 14.0 mph22.5 kmh 29.77 in1008.1 mb 0.00 in0.0 mm 0.00 in0.0 mm 0.04 in1.0 mm
02:56 PM 44.4°F6.9°C 32.4°F0.2°C 63% 6.0 mph W9.7 kmh W 14.0 mph22.5 kmh 29.77 in1008.1 mb 0.00 in0.0 mm 0.00 in0.0 mm 0.04 in1.0 mm
03:01 PM 44.5°F6.9°C 32.1°F0.1°C 62% 7.0 mph SW11.3 kmh SW 15.0 mph24.1 kmh 29.77 in1008.1 mb 0.00 in0.0 mm 0.00 in0.0 mm 0.04 in1.0 mm
03:06 PM 44.6°F7.0°C 32.1°F0.1°C 62% 8.0 mph WSW12.9 kmh WSW 15.0 mph24.1 kmh 29.78 in1008.5 mb 0.00 in0.0 mm 0.00 in0.0 mm 0.04 in1.0 mm
03:11 PM 44.8°F7.1°C 31.9°F-0.1°C 61% 12.0 mph WSW19.3 kmh WSW 15.0 mph24.1 kmh 29.78 in1008.5 mb 0.00 in0.0 mm 0.00 in0.0 mm 0.04 in1.0 mm
03:16 PM 44.9°F7.2°C 32.0°F0.0°C 61% 6.0 mph WSW9.7 kmh WSW 15.0 mph24.1 kmh 29.78 in1008.5 mb 0.00 in0.0 mm 0.00 in0.0 mm 0.04 in1.0 mm
03:21 PM 44.9°F7.2°C 32.0°F0.0°C 61% 12.0 mph WSW19.3 kmh WSW 17.0 mph27.4 kmh 29.79 in1008.8 mb 0.00 in0.0 mm 0.00 in0.0 mm 0.04 in1.0 mm
03:26 PM 44.9°F7.2°C 31.6°F-0.2°C 60% 5.0 mph WSW8.0 kmh WSW 17.0 mph27.4 kmh 29.78 in1008.5 mb 0.00 in0.0 mm 0.00 in0.0 mm 0.04 in1.0 mm
03:31 PM 44.8°F7.1°C 31.5°F-0.3°C 60% 10.0 mph SW16.1 kmh SW 17.0 mph27.4 kmh 29.78 in1008.5 mb 0.00 in0.0 mm 0.00 in0.0 mm 0.04 in1.0 mm
03:36 PM 44.8°F7.1°C 31.9°F-0.1°C 61% 8.0 mph WSW12.9 kmh WSW 19.0 mph30.6 kmh 29.79 in1008.8 mb 0.00 in0.0 mm 0.00 in0.0 mm 0.04 in1.0 mm
03:41 PM 44.6°F7.0°C 31.7°F-0.2°C 61% 9.0 mph SW14.5 kmh SW 19.0 mph30.6 kmh 29.79 in1008.8 mb 0.00 in0.0 mm 0.00 in0.0 mm 0.04 in1.0 mm
03:46 PM 44.6°F7.0°C 31.7°F-0.2°C 61% 8.0 mph WSW12.9 kmh WSW 19.0 mph30.6 kmh 29.78 in1008.5 mb 0.00 in0.0 mm 0.00 in0.0 mm 0.04 in1.0 mm
03:51 PM 44.6°F7.0°C 31.7°F-0.2°C 61% 7.0 mph WSW11.3 kmh WSW 19.0 mph30.6 kmh 29.78 in1008.5 mb 0.00 in0.0 mm 0.00 in0.0 mm 0.04 in1.0 mm
03:56 PM 44.5°F6.9°C 31.2°F-0.4°C 60% 21.0 mph WSW33.8 kmh WSW 22.0 mph35.4 kmh 29.78 in1008.5 mb 0.00 in0.0 mm 0.00 in0.0 mm 0.04 in1.0 mm
04:01 PM 44.5°F6.9°C 30.8°F-0.7°C 59% 8.0 mph WSW12.9 kmh WSW 22.0 mph35.4 kmh 29.78 in1008.5 mb 0.00 in0.0 mm 0.00 in0.0 mm 0.04 in1.0 mm
04:06 PM 44.5°F6.9°C 30.4°F-0.9°C 58% 9.0 mph SW14.5 kmh SW 22.0 mph35.4 kmh 29.78 in1008.5 mb 0.00 in0.0 mm 0.00 in0.0 mm 0.04 in1.0 mm
04:11 PM 44.5°F6.9°C 29.9°F-1.2°C 57% 8.0 mph SW12.9 kmh SW 22.0 mph35.4 kmh 29.78 in1008.5 mb 0.00 in0.0 mm 0.00 in0.0 mm 0.04 in1.0 mm
04:16 PM 44.5°F6.9°C 29.0°F-1.7°C 55% 10.0 mph WSW16.1 kmh WSW 21.0 mph33.8 kmh 29.79 in1008.8 mb 0.00 in0.0 mm 0.00 in0.0 mm 0.04 in1.0 mm
04:21 PM 44.6°F7.0°C 29.1°F-1.6°C 55% 7.0 mph WSW11.3 kmh WSW 21.0 mph33.8 kmh 29.79 in1008.8 mb 0.00 in0.0 mm 0.00 in0.0 mm 0.04 in1.0 mm
04:26 PM 44.6°F7.0°C 28.2°F-2.1°C 53% 7.0 mph WSW11.3 kmh WSW 21.0 mph33.8 kmh 29.79 in1008.8 mb 0.00 in0.0 mm 0.00 in0.0 mm 0.04 in1.0 mm
04:31 PM 44.6°F7.0°C 28.2°F-2.1°C 53% 4.0 mph W6.4 kmh W 21.0 mph33.8 kmh 29.79 in1008.8 mb 0.00 in0.0 mm 0.00 in0.0 mm 0.04 in1.0 mm
04:36 PM 44.7°F7.1°C 28.2°F-2.1°C 53% 12.0 mph W19.3 kmh W 21.0 mph33.8 kmh 29.79 in1008.8 mb 0.00 in0.0 mm 0.00 in0.0 mm 0.04 in1.0 mm
04:41 PM 44.5°F6.9°C 28.5°F-1.9°C 54% 5.0 mph WSW8.0 kmh WSW 21.0 mph33.8 kmh 29.79 in1008.8 mb 0.00 in0.0 mm 0.00 in0.0 mm 0.04 in1.0 mm
04:46 PM 44.3°F6.8°C 28.4°F-2.0°C 54% 10.0 mph W16.1 kmh W 23.0 mph37.0 kmh 29.79 in1008.8 mb 0.00 in0.0 mm 0.00 in0.0 mm 0.04 in1.0 mm
04:51 PM 44.1°F6.7°C 28.2°F-2.1°C 54% 10.0 mph SW16.1 kmh SW 23.0 mph37.0 kmh 29.80 in1009.1 mb 0.00 in0.0 mm 0.00 in0.0 mm 0.04 in1.0 mm
04:56 PM 43.9°F6.6°C 27.5°F-2.5°C 53% 12.0 mph W19.3 kmh W 23.0 mph37.0 kmh 29.80 in1009.1 mb 0.00 in0.0 mm 0.00 in0.0 mm 0.04 in1.0 mm
05:01 PM 43.7°F6.5°C 27.8°F-2.3°C 54% 8.0 mph W12.9 kmh W 23.0 mph37.0 kmh 29.79 in1008.8 mb 0.00 in0.0 mm 0.00 in0.0 mm 0.04 in1.0 mm
05:06 PM 43.6°F6.4°C 27.7°F-2.4°C 54% 10.0 mph WSW16.1 kmh WSW 21.0 mph33.8 kmh 29.79 in1008.8 mb 0.00 in0.0 mm 0.00 in0.0 mm 0.04 in1.0 mm
05:11 PM 43.5°F6.4°C 27.6°F-2.4°C 54% 6.0 mph WSW9.7 kmh WSW 21.0 mph33.8 kmh 29.79 in1008.8 mb 0.00 in0.0 mm 0.00 in0.0 mm 0.04 in1.0 mm
05:16 PM 43.4°F6.3°C 27.5°F-2.5°C 54% 12.0 mph WSW19.3 kmh WSW 19.0 mph30.6 kmh 29.80 in1009.1 mb 0.00 in0.0 mm 0.00 in0.0 mm 0.04 in1.0 mm
05:21 PM 43.3°F6.3°C 27.0°F-2.8°C 53% 8.0 mph WSW12.9 kmh WSW 19.0 mph30.6 kmh 29.79 in1008.8 mb 0.00 in0.0 mm 0.00 in0.0 mm 0.04 in1.0 mm
05:26 PM 43.2°F6.2°C 27.3°F-2.6°C 54% 8.0 mph WSW12.9 kmh WSW 18.0 mph29.0 kmh 29.79 in1008.8 mb 0.00 in0.0 mm 0.00 in0.0 mm 0.04 in1.0 mm
05:31 PM 43.2°F6.2°C 27.3°F-2.6°C 54% 12.0 mph WSW19.3 kmh WSW 20.0 mph32.2 kmh 29.80 in1009.1 mb 0.00 in0.0 mm 0.00 in0.0 mm 0.04 in1.0 mm
05:36 PM 43.1°F6.2°C 27.2°F-2.7°C 54% 11.0 mph WSW17.7 kmh WSW 20.0 mph32.2 kmh 29.80 in1009.1 mb 0.00 in0.0 mm 0.00 in0.0 mm 0.04 in1.0 mm
05:41 PM 43.0°F6.1°C 27.6°F-2.4°C 55% 4.0 mph WNW6.4 kmh WNW 20.0 mph32.2 kmh 29.80 in1009.1 mb 0.00 in0.0 mm 0.00 in0.0 mm 0.04 in1.0 mm
05:46 PM 42.9°F6.1°C 28.0°F-2.2°C 56% 11.0 mph W17.7 kmh W 25.0 mph40.2 kmh 29.80 in1009.1 mb 0.00 in0.0 mm 0.00 in0.0 mm 0.04 in1.0 mm
05:51 PM 42.5°F5.8°C 28.0°F-2.2°C 57% 14.0 mph WNW22.5 kmh WNW 25.0 mph40.2 kmh 29.80 in1009.1 mb 0.00 in0.0 mm 0.00 in0.0 mm 0.04 in1.0 mm
05:56 PM 42.2°F5.7°C 28.2°F-2.1°C 58% 6.0 mph W9.7 kmh W 25.0 mph40.2 kmh 29.80 in1009.1 mb 0.00 in0.0 mm 0.00 in0.0 mm 0.04 in1.0 mm
06:01 PM 41.9°F5.5°C 27.9°F-2.3°C 58% 4.0 mph WSW6.4 kmh WSW 25.0 mph40.2 kmh 29.81 in1009.5 mb 0.00 in0.0 mm 0.00 in0.0 mm 0.04 in1.0 mm
06:06 PM 41.6°F5.3°C 28.1°F-2.2°C 59% 9.0 mph W14.5 kmh W 18.0 mph29.0 kmh 29.81 in1009.5 mb 0.00 in0.0 mm 0.00 in0.0 mm 0.04 in1.0 mm
06:11 PM 41.4°F5.2°C 28.3°F-2.1°C 60% 7.0 mph W11.3 kmh W 18.0 mph29.0 kmh 29.81 in1009.5 mb 0.00 in0.0 mm 0.00 in0.0 mm 0.04 in1.0 mm
06:16 PM 41.2°F5.1°C 28.1°F-2.2°C 60% 7.0 mph WSW11.3 kmh WSW 16.0 mph25.7 kmh 29.81 in1009.5 mb 0.00 in0.0 mm 0.00 in0.0 mm 0.04 in1.0 mm
06:21 PM 41.0°F5.0°C 28.3°F-2.1°C 61% 4.0 mph WSW6.4 kmh WSW 16.0 mph25.7 kmh 29.81 in1009.5 mb 0.00 in0.0 mm 0.00 in0.0 mm 0.04 in1.0 mm
06:26 PM 40.9°F4.9°C 28.7°F-1.8°C 62% 7.0 mph W11.3 kmh W 12.0 mph19.3 kmh 29.81 in1009.5 mb 0.00 in0.0 mm 0.00 in0.0 mm 0.04 in1.0 mm
06:31 PM 40.6°F4.8°C 28.8°F-1.8°C 63% 9.0 mph WSW14.5 kmh WSW 13.0 mph20.9 kmh 29.81 in1009.5 mb 0.00 in0.0 mm 0.00 in0.0 mm 0.04 in1.0 mm
06:36 PM 40.3°F4.6°C 28.5°F-1.9°C 63% 7.0 mph W11.3 kmh W 18.0 mph29.0 kmh 29.82 in1009.8 mb 0.00 in0.0 mm 0.00 in0.0 mm 0.04 in1.0 mm
06:41 PM 39.9°F4.4°C 28.9°F-1.7°C 65% 5.0 mph W8.0 kmh W 18.0 mph29.0 kmh 29.82 in1009.8 mb 0.00 in0.0 mm 0.00 in0.0 mm 0.04 in1.0 mm
06:46 PM 39.5°F4.2°C 28.9°F-1.7°C 66% 10.0 mph WSW16.1 kmh WSW 18.0 mph29.0 kmh 29.82 in1009.8 mb 0.00 in0.0 mm 0.00 in0.0 mm 0.04 in1.0 mm
06:51 PM 39.2°F4.0°C 28.6°F-1.9°C 66% 7.0 mph WNW11.3 kmh WNW 18.0 mph29.0 kmh 29.82 in1009.8 mb 0.00 in0.0 mm 0.00 in0.0 mm 0.04 in1.0 mm
06:56 PM 39.1°F3.9°C 28.9°F-1.7°C 67% 6.0 mph WSW9.7 kmh WSW 14.0 mph22.5 kmh 29.82 in1009.8 mb 0.00 in0.0 mm 0.00 in0.0 mm 0.04 in1.0 mm
07:01 PM 39.2°F4.0°C 28.6°F-1.9°C 66% 5.0 mph W8.0 kmh W 16.0 mph25.7 kmh 29.82 in1009.8 mb 0.00 in0.0 mm 0.00 in0.0 mm 0.04 in1.0 mm
07:06 PM 39.3°F4.1°C 28.7°F-1.8°C 66% 7.0 mph WSW11.3 kmh WSW 17.0 mph27.4 kmh 29.82 in1009.8 mb 0.00 in0.0 mm 0.00 in0.0 mm 0.04 in1.0 mm
07:11 PM 39.5°F4.2°C 28.5°F-1.9°C 65% 11.0 mph SW17.7 kmh SW 17.0 mph27.4 kmh 29.83 in1010.2 mb 0.00 in0.0 mm 0.00 in0.0 mm 0.04 in1.0 mm
07:16 PM 39.7°F4.3°C 27.9°F-2.3°C 63% 5.0 mph NW8.0 kmh NW 18.0 mph29.0 kmh 29.83 in1010.2 mb 0.00 in0.0 mm 0.00 in0.0 mm 0.04 in1.0 mm
07:21 PM 39.7°F4.3°C 27.9°F-2.3°C 63% 6.0 mph W9.7 kmh W 18.0 mph29.0 kmh 29.83 in1010.2 mb 0.00 in0.0 mm 0.00 in0.0 mm 0.04 in1.0 mm
07:26 PM 39.6°F4.2°C 27.8°F-2.3°C 63% 15.0 mph NW24.1 kmh NW 22.0 mph35.4 kmh 29.84 in1010.5 mb 0.00 in0.0 mm 0.00 in0.0 mm 0.04 in1.0 mm
07:31 PM 38.9°F3.8°C 28.3°F-2.1°C 66% 6.0 mph NW9.7 kmh NW 22.0 mph35.4 kmh 29.84 in1010.5 mb 0.00 in0.0 mm 0.00 in0.0 mm 0.04 in1.0 mm
07:36 PM 38.0°F3.3°C 28.2°F-2.1°C 68% 6.0 mph NW9.7 kmh NW 22.0 mph35.4 kmh 29.84 in1010.5 mb 0.00 in0.0 mm 0.00 in0.0 mm 0.04 in1.0 mm
07:41 PM 37.3°F2.9°C 27.9°F-2.3°C 69% 8.0 mph WNW12.9 kmh WNW 22.0 mph35.4 kmh 29.84 in1010.5 mb 0.00 in0.0 mm 0.00 in0.0 mm 0.04 in1.0 mm
07:46 PM 36.8°F2.7°C 27.8°F-2.3°C 70% 6.0 mph NW9.7 kmh NW 19.0 mph30.6 kmh 29.85 in1010.8 mb 0.00 in0.0 mm 0.00 in0.0 mm 0.04 in1.0 mm
07:51 PM 36.4°F2.4°C 27.4°F-2.6°C 70% 7.0 mph NW11.3 kmh NW 19.0 mph30.6 kmh 29.86 in1011.2 mb 0.00 in0.0 mm 0.00 in0.0 mm 0.04 in1.0 mm
07:56 PM 36.1°F2.3°C 27.1°F-2.7°C 70% 4.0 mph W6.4 kmh W 15.0 mph24.1 kmh 29.86 in1011.2 mb 0.00 in0.0 mm 0.00 in0.0 mm 0.04 in1.0 mm
08:01 PM 35.8°F2.1°C 26.9°F-2.8°C 70% 16.0 mph WNW25.7 kmh WNW 18.0 mph29.0 kmh 29.86 in1011.2 mb 0.00 in0.0 mm 0.00 in0.0 mm 0.04 in1.0 mm
08:06 PM 35.6°F2.0°C 26.7°F-2.9°C 70% 6.0 mph WNW9.7 kmh WNW 18.0 mph29.0 kmh 29.87 in1011.5 mb 0.00 in0.0 mm 0.00 in0.0 mm 0.04 in1.0 mm
08:11 PM 35.4°F1.9°C 26.8°F-2.9°C 71% 12.0 mph WNW19.3 kmh WNW 18.0 mph29.0 kmh 29.87 in1011.5 mb 0.00 in0.0 mm 0.00 in0.0 mm 0.04 in1.0 mm
08:16 PM 35.2°F1.8°C 27.0°F-2.8°C 72% 7.0 mph NW11.3 kmh NW 18.0 mph29.0 kmh 29.87 in1011.5 mb 0.00 in0.0 mm 0.00 in0.0 mm 0.04 in1.0 mm
08:21 PM 34.8°F1.6°C 26.6°F-3.0°C 72% 9.0 mph NW14.5 kmh NW 18.0 mph29.0 kmh 29.88 in1011.9 mb 0.00 in0.0 mm 0.00 in0.0 mm 0.04 in1.0 mm
08:26 PM 34.5°F1.4°C 26.3°F-3.2°C 72% 8.0 mph NW12.9 kmh NW 18.0 mph29.0 kmh 29.88 in1011.9 mb 0.00 in0.0 mm 0.00 in0.0 mm 0.04 in1.0 mm
08:31 PM 34.1°F1.2°C 26.3°F-3.2°C 73% 9.0 mph NW14.5 kmh NW 19.0 mph30.6 kmh 29.88 in1011.9 mb 0.00 in0.0 mm 0.00 in0.0 mm 0.04 in1.0 mm
08:36 PM 33.7°F0.9°C 25.9°F-3.4°C 73% 8.0 mph NW12.9 kmh NW 19.0 mph30.6 kmh 29.89 in1012.2 mb 0.00 in0.0 mm 0.00 in0.0 mm 0.04 in1.0 mm
08:41 PM 33.4°F0.8°C 25.6°F-3.6°C 73% 8.0 mph NW12.9 kmh NW 19.0 mph30.6 kmh 29.89 in1012.2 mb 0.00 in0.0 mm 0.00 in0.0 mm 0.04 in1.0 mm
08:46 PM 33.1°F0.6°C 25.3°F-3.7°C 73% 8.0 mph WNW12.9 kmh WNW 19.0 mph30.6 kmh 29.89 in1012.2 mb 0.00 in0.0 mm 0.00 in0.0 mm 0.04 in1.0 mm
08:51 PM 32.9°F0.5°C 25.1°F-3.8°C 73% 11.0 mph NW17.7 kmh NW 19.0 mph30.6 kmh 29.90 in1012.5 mb 0.00 in0.0 mm 0.00 in0.0 mm 0.04 in1.0 mm
08:56 PM 32.7°F0.4°C 24.9°F-3.9°C 73% 8.0 mph WNW12.9 kmh WNW 22.0 mph35.4 kmh 29.90 in1012.5 mb 0.00 in0.0 mm 0.00 in0.0 mm 0.04 in1.0 mm
09:01 PM 32.4°F0.2°C 25.0°F-3.9°C 74% 9.0 mph NW14.5 kmh NW 22.0 mph35.4 kmh 29.91 in1012.9 mb 0.00 in0.0 mm 0.00 in0.0 mm 0.04 in1.0 mm
09:06 PM 32.3°F0.2°C 24.5°F-4.2°C 73% 10.0 mph W16.1 kmh W 22.0 mph35.4 kmh 29.91 in1012.9 mb 0.00 in0.0 mm 0.00 in0.0 mm 0.04 in1.0 mm
09:11 PM 32.2°F0.1°C 24.4°F-4.2°C 73% 5.0 mph WNW8.0 kmh WNW 22.0 mph35.4 kmh 29.91 in1012.9 mb 0.00 in0.0 mm 0.00 in0.0 mm 0.04 in1.0 mm
09:16 PM 32.3°F0.2°C 23.9°F-4.5°C 71% 11.0 mph W17.7 kmh W 16.0 mph25.7 kmh 29.91 in1012.9 mb 0.00 in0.0 mm 0.00 in0.0 mm 0.04 in1.0 mm
09:21 PM 32.5°F0.3°C 22.6°F-5.2°C 67% 18.0 mph W29.0 kmh W 18.0 mph29.0 kmh 29.92 in1013.2 mb 0.00 in0.0 mm 0.00 in0.0 mm 0.04 in1.0 mm
09:26 PM 32.8°F0.4°C 21.4°F-5.9°C 63% 9.0 mph W14.5 kmh W 19.0 mph30.6 kmh 29.92 in1013.2 mb 0.00 in0.0 mm 0.00 in0.0 mm 0.04 in1.0 mm
09:31 PM 33.1°F0.6°C 20.9°F-6.2°C 61% 14.0 mph SW22.5 kmh SW 19.0 mph30.6 kmh 29.92 in1013.2 mb 0.00 in0.0 mm 0.00 in0.0 mm 0.04 in1.0 mm
09:36 PM 33.3°F0.7°C 20.3°F-6.5°C 59% 5.0 mph W8.0 kmh W 19.0 mph30.6 kmh 29.92 in1013.2 mb 0.00 in0.0 mm 0.00 in0.0 mm 0.04 in1.0 mm
09:41 PM 33.5°F0.8°C 20.5°F-6.4°C 59% 10.0 mph W16.1 kmh W 19.0 mph30.6 kmh 29.93 in1013.5 mb 0.00 in0.0 mm 0.00 in0.0 mm 0.04 in1.0 mm
09:46 PM 33.6°F0.9°C 20.6°F-6.3°C 59% 9.0 mph NW14.5 kmh NW 21.0 mph33.8 kmh 29.93 in1013.5 mb 0.00 in0.0 mm 0.00 in0.0 mm 0.04 in1.0 mm
09:51 PM 33.6°F0.9°C 20.6°F-6.3°C 59% 17.0 mph WNW27.4 kmh WNW 24.0 mph38.6 kmh 29.93 in1013.5 mb 0.00 in0.0 mm 0.00 in0.0 mm 0.04 in1.0 mm
09:56 PM 33.6°F0.9°C 21.0°F-6.1°C 60% 10.0 mph NW16.1 kmh NW 24.0 mph38.6 kmh 29.94 in1013.9 mb 0.00 in0.0 mm 0.00 in0.0 mm 0.04 in1.0 mm
10:01 PM 33.5°F0.8°C 20.5°F-6.4°C 59% 5.0 mph NNW8.0 kmh NNW 24.0 mph38.6 kmh 29.94 in1013.9 mb 0.00 in0.0 mm 0.00 in0.0 mm 0.04 in1.0 mm
10:06 PM 33.4°F0.8°C 19.6°F-6.9°C 57% 11.0 mph WNW17.7 kmh WNW 24.0 mph38.6 kmh 29.95 in1014.2 mb 0.00 in0.0 mm 0.00 in0.0 mm 0.04 in1.0 mm
10:11 PM 33.3°F0.7°C 19.0°F-7.2°C 56% 7.0 mph NW11.3 kmh NW 19.0 mph30.6 kmh 29.95 in1014.2 mb 0.00 in0.0 mm 0.00 in0.0 mm 0.04 in1.0 mm
10:16 PM 33.3°F0.7°C 18.6°F-7.4°C 55% 11.0 mph NW17.7 kmh NW 19.0 mph30.6 kmh 29.95 in1014.2 mb 0.00 in0.0 mm 0.00 in0.0 mm 0.04 in1.0 mm
10:21 PM 33.2°F0.7°C 18.1°F-7.7°C 54% 8.0 mph NW12.9 kmh NW 23.0 mph37.0 kmh 29.95 in1014.2 mb 0.00 in0.0 mm 0.00 in0.0 mm 0.04 in1.0 mm
10:26 PM 33.2°F0.7°C 17.6°F-8.0°C 53% 15.0 mph NW24.1 kmh NW 23.0 mph37.0 kmh 29.95 in1014.2 mb 0.00 in0.0 mm 0.00 in0.0 mm 0.04 in1.0 mm
10:31 PM 33.2°F0.7°C 17.2°F-8.2°C 52% 9.0 mph NW14.5 kmh NW 23.0 mph37.0 kmh 29.95 in1014.2 mb 0.00 in0.0 mm 0.00 in0.0 mm 0.04 in1.0 mm
10:36 PM 33.1°F0.6°C 16.1°F-8.8°C 50% 12.0 mph WNW19.3 kmh WNW 23.0 mph37.0 kmh 29.95 in1014.2 mb 0.00 in0.0 mm 0.00 in0.0 mm 0.04 in1.0 mm
10:41 PM 33.1°F0.6°C 16.1°F-8.8°C 50% 15.0 mph WNW24.1 kmh WNW 21.0 mph33.8 kmh 29.95 in1014.2 mb 0.00 in0.0 mm 0.00 in0.0 mm 0.04 in1.0 mm
10:46 PM 33.0°F0.6°C 15.5°F-9.2°C 49% 12.0 mph WNW19.3 kmh WNW 21.0 mph33.8 kmh 29.95 in1014.2 mb 0.00 in0.0 mm 0.00 in0.0 mm 0.04 in1.0 mm
10:51 PM 33.0°F0.6°C 15.5°F-9.2°C 49% 7.0 mph NW11.3 kmh NW 21.0 mph33.8 kmh 29.95 in1014.2 mb 0.00 in0.0 mm 0.00 in0.0 mm 0.04 in1.0 mm
10:56 PM 32.9°F0.5°C 15.9°F-8.9°C 50% 7.0 mph NW11.3 kmh NW 21.0 mph33.8 kmh 29.95 in1014.2 mb 0.00 in0.0 mm 0.00 in0.0 mm 0.04 in1.0 mm
11:01 PM 32.9°F0.5°C 15.9°F-8.9°C 50% 16.0 mph WNW25.7 kmh WNW 21.0 mph33.8 kmh 29.95 in1014.2 mb 0.00 in0.0 mm 0.00 in0.0 mm 0.04 in1.0 mm
11:06 PM 32.8°F0.4°C 15.8°F-9.0°C 50% 11.0 mph WNW17.7 kmh WNW 19.0 mph30.6 kmh 29.95 in1014.2 mb 0.00 in0.0 mm 0.00 in0.0 mm 0.04 in1.0 mm
11:11 PM 32.8°F0.4°C 15.8°F-9.0°C 50% 15.0 mph W24.1 kmh W 19.0 mph30.6 kmh 29.96 in1014.6 mb 0.00 in0.0 mm 0.00 in0.0 mm 0.04 in1.0 mm
11:16 PM 32.8°F0.4°C 16.3°F-8.7°C 51% 7.0 mph WNW11.3 kmh WNW 17.0 mph27.4 kmh 29.96 in1014.6 mb 0.00 in0.0 mm 0.00 in0.0 mm 0.04 in1.0 mm
11:21 PM 32.8°F0.4°C 16.3°F-8.7°C 51% 10.0 mph NW16.1 kmh NW 17.0 mph27.4 kmh 29.96 in1014.6 mb 0.00 in0.0 mm 0.00 in0.0 mm 0.04 in1.0 mm
11:26 PM 32.8°F0.4°C 17.7°F-7.9°C 54% 16.0 mph NW25.7 kmh NW 16.0 mph25.7 kmh 29.96 in1014.6 mb 0.00 in0.0 mm 0.00 in0.0 mm 0.04 in1.0 mm
11:31 PM 32.7°F0.4°C 19.3°F-7.1°C 58% 4.0 mph NW6.4 kmh NW 16.0 mph25.7 kmh 29.97 in1014.9 mb 0.00 in0.0 mm 0.00 in0.0 mm 0.04 in1.0 mm
11:36 PM 32.5°F0.3°C 20.0°F-6.7°C 60% 8.0 mph NNW12.9 kmh NNW 16.0 mph25.7 kmh 29.97 in1014.9 mb 0.00 in0.0 mm 0.00 in0.0 mm 0.04 in1.0 mm
11:41 PM 32.2°F0.1°C 20.1°F-6.6°C 61% 9.0 mph WNW14.5 kmh WNW 16.0 mph25.7 kmh 29.97 in1014.9 mb 0.00 in0.0 mm 0.00 in0.0 mm 0.04 in1.0 mm
11:46 PM 32.0°F0.0°C 19.9°F-6.7°C 61% 4.0 mph WNW6.4 kmh WNW 13.0 mph20.9 kmh 29.97 in1014.9 mb 0.00 in0.0 mm 0.00 in0.0 mm 0.04 in1.0 mm
11:51 PM 31.8°F-0.1°C 19.3°F-7.1°C 60% 6.0 mph NW9.7 kmh NW 20.0 mph32.2 kmh 29.97 in1014.9 mb 0.00 in0.0 mm 0.00 in0.0 mm 0.04 in1.0 mm
11:56 PM 31.8°F-0.1°C 18.9°F-7.3°C 59% 8.0 mph NW12.9 kmh NW 20.0 mph32.2 kmh 29.97 in1014.9 mb 0.00 in0.0 mm 0.00 in0.0 mm 0.04 in1.0 mm